Time;durP1;ratioP1;P1;durP2;ratioP2;P2;SDS_P1;SDS_P2;PMS_P1;PMS_P2;Temp;Humidity;BMP_temperature;BMP_pressure;BME280_temperature;BME280_humidity;BME280_pressure;Samples;Min_cycle;Max_cycle;Signal;HPM_P1;HPM_P2
2023/03/14 00:00:40;;;;;;;1.23;0.80;;;;;;;-144.47;100.00;52844.19;5032839;28;20673;-73
2023/03/14 00:03:05;;;;;;;2.35;0.98;;;;;;;-144.47;100.00;52844.19;5033242;28;20036;-72
2023/03/14 00:05:30;;;;;;;1.20;0.80;;;;;;;-144.47;100.00;52885.88;5036915;28;20429;-73
2023/03/14 00:07:56;;;;;;;1.52;0.85;;;;;;;-144.47;100.00;52907.72;5046431;28;20028;-72
2023/03/14 00:10:21;;;;;;;3.10;0.90;;;;;;;-144.47;100.00;52866.03;5038490;28;20026;-71
2023/03/14 00:12:47;;;;;;;2.05;1.10;;;;;;;-144.47;100.00;52868.00;5029892;28;20486;-73
2023/03/14 00:15:12;;;;;;;3.70;0.98;;;;;;;-144.47;100.00;52873.97;5011800;28;20035;-72
2023/03/14 00:17:38;;;;;;;2.08;1.00;;;;;;;-144.47;100.00;52891.84;5028792;28;20030;-72
2023/03/14 00:20:10;;;;;;;0.95;0.88;;;;;;;-144.47;100.00;52871.97;5029742;28;20017;-72
2023/03/14 00:22:40;;;;;;;2.08;1.02;;;;;;;-144.47;100.00;52868.00;5011506;28;20033;-72
2023/03/14 00:25:08;;;;;;;2.85;1.05;;;;;;;-144.47;100.00;52901.78;5029936;28;20033;-74
2023/03/14 00:27:33;;;;;;;3.83;1.20;;;;;;;-144.47;100.00;52887.88;5029079;28;20040;-70
2023/03/14 00:29:58;;;;;;;2.72;1.20;;;;;;;-144.47;100.00;52868.00;5029551;28;20475;-69
2023/03/14 00:32:24;;;;;;;2.20;1.15;;;;;;;-144.47;100.00;52893.81;5028423;28;20403;-72
2023/03/14 00:34:49;;;;;;;2.97;1.10;;;;;;;-144.47;100.00;52850.13;5028722;28;20112;-70
2023/03/14 00:37:15;;;;;;;3.78;1.10;;;;;;;-144.47;100.00;52870.00;5029643;28;20038;-70
2023/03/14 00:39:40;;;;;;;2.00;1.10;;;;;;;-144.47;100.00;52846.16;5029084;28;20033;-69
2023/03/14 00:42:06;;;;;;;3.08;1.42;;;;;;;-144.47;100.00;52891.84;5029001;28;20030;-71
2023/03/14 00:44:31;;;;;;;2.13;1.25;;;;;;;-144.47;100.00;52883.91;5029212;28;20049;-68
2023/03/14 00:46:57;;;;;;;2.67;1.10;;;;;;;-144.47;100.00;52870.00;5028136;28;20099;-70
2023/03/14 00:49:23;;;;;;;3.50;1.00;;;;;;;-144.47;100.00;52897.81;5028931;28;20032;-70
2023/03/14 00:51:48;;;;;;;2.08;1.02;;;;;;;-144.47;100.00;52901.78;5028764;28;20021;-70
2023/03/14 00:54:13;;;;;;;2.40;1.00;;;;;;;-144.47;100.00;52885.88;5028786;28;20380;-72
2023/03/14 00:56:39;;;;;;;2.53;1.00;;;;;;;-144.47;100.00;52895.81;5028405;28;20025;-70
2023/03/14 00:59:04;;;;;;;1.10;0.90;;;;;;;-144.47;100.00;52891.84;5028650;28;20029;-72
2023/03/14 01:01:29;;;;;;;2.35;1.08;;;;;;;-144.47;100.00;52871.97;5025602;28;20088;-69
2023/03/14 01:03:56;;;;;;;2.95;1.10;;;;;;;-144.47;100.00;52881.91;5032417;28;20022;-71
2023/03/14 01:06:24;;;;;;;1.83;0.85;;;;;;;-144.47;100.00;52864.03;5034413;28;20454;-71
2023/03/14 01:08:51;;;;;;;2.75;0.88;;;;;;;-144.47;100.00;52844.19;5045134;28;20512;-71
2023/03/14 01:11:25;;;;;;;2.20;1.08;;;;;;;-144.47;100.00;52879.94;5015174;28;20407;-71
2023/03/14 01:13:52;;;;;;;6.55;1.35;;;;;;;-144.47;100.00;52864.03;5027816;28;20026;-70
2023/03/14 01:16:19;;;;;;;1.70;0.90;;;;;;;-144.47;100.00;52852.13;5028279;28;20029;-71
2023/03/14 01:18:46;;;;;;;0.95;0.75;;;;;;;-144.47;99.42;52856.09;5028006;28;20159;-72
2023/03/14 01:21:26;;;;;;;1.45;0.80;;;;;;;-144.47;99.09;52860.06;5028370;28;20521;-71
2023/03/14 01:23:55;;;;;;;1.13;0.85;;;;;;;-144.47;98.71;52850.13;5027874;28;20025;-68
2023/03/14 01:26:22;;;;;;;2.47;0.90;;;;;;;-144.47;98.43;52848.16;5027779;28;20079;-72
2023/03/14 01:28:49;;;;;;;1.38;0.90;;;;;;;-144.47;98.41;52854.09;5028491;28;20034;-72
2023/03/14 01:31:16;;;;;;;1.38;0.70;;;;;;;-144.47;98.61;52858.06;5028246;28;20035;-69
2023/03/14 01:33:42;;;;;;;2.08;0.90;;;;;;;-144.47;96.99;52846.16;5027589;28;20025;-68
2023/03/14 01:36:08;;;;;;;1.42;0.80;;;;;;;-144.47;96.42;52848.16;5027120;28;20087;-70
2023/03/14 01:38:36;;;;;;;5.15;0.93;;;;;;;-144.47;95.70;52854.09;5027644;28;20022;-69
2023/03/14 01:41:02;;;;;;;2.63;0.98;;;;;;;-144.47;96.27;52860.06;5027905;28;20029;-68
2023/03/14 01:43:29;;;;;;;1.55;0.88;;;;;;;-144.47;96.79;52852.13;5027841;28;20057;-72
2023/03/14 01:45:58;;;;;;;1.98;0.90;;;;;;;-144.47;96.43;52866.03;5028339;28;20056;-71
2023/03/14 01:48:25;;;;;;;1.63;0.90;;;;;;;-144.47;96.44;52852.13;5029074;28;20523;-69
2023/03/14 01:50:51;;;;;;;2.17;0.80;;;;;;;-144.47;96.79;52856.09;5014406;28;20088;-71
2023/03/14 01:53:21;;;;;;;1.35;0.80;;;;;;;-144.47;97.18;52840.19;5032377;28;20487;-70
2023/03/14 01:55:48;;;;;;;1.05;0.70;;;;;;;-144.47;97.41;52875.94;5032503;28;20033;-69
2023/03/14 01:58:16;;;;;;;1.67;0.70;;;;;;;-144.47;96.96;52852.13;5031963;28;20049;-70
2023/03/14 02:00:41;;;;;;;2.55;0.82;;;;;;;-144.47;96.75;52883.91;5034380;28;20123;-70
2023/03/14 02:03:13;;;;;;;0.70;0.70;;;;;;;-144.47;96.54;52860.06;5037330;28;20211;-70
2023/03/14 02:05:41;;;;;;;1.90;0.75;;;;;;;-144.47;96.42;52875.94;5015260;28;20534;-71
2023/03/14 02:08:10;;;;;;;1.20;0.70;;;;;;;-144.47;96.57;52868.00;5047410;28;20039;-71
2023/03/14 02:10:38;;;;;;;;;;;;;;;-144.47;96.60;52850.13;5038052;28;20025;-68
2023/03/14 02:13:05;;;;;;;1.10;0.85;;;;;;;-144.47;96.57;52854.09;5013679;28;19971;-71
2023/03/14 02:15:31;;;;;;;1.08;0.73;;;;;;;-144.47;96.28;52868.00;5031460;28;20037;-70
2023/03/14 02:17:58;;;;;;;0.75;0.68;;;;;;;-144.47;96.39;52889.84;5031141;28;20575;-71
2023/03/14 02:20:30;;;;;;;4.40;0.90;;;;;;;-144.47;95.82;52870.00;5031297;28;20060;-72
2023/03/14 02:22:55;;;;;;;1.20;0.82;;;;;;;-144.47;95.84;52850.13;5031789;28;20507;-71
2023/03/14 02:25:27;;;;;;;0.85;0.63;;;;;;;-144.47;95.57;52860.06;5031404;28;20094;-71
2023/03/14 02:27:53;;;;;;;2.22;1.05;;;;;;;-144.47;95.42;52866.03;5031403;28;20021;-71
2023/03/14 02:30:26;;;;;;;3.08;0.85;;;;;;;-144.47;95.43;52860.06;5031351;28;20025;-70
2023/03/14 02:32:57;;;;;;;0.60;0.60;;;;;;;-144.47;95.40;52866.03;5031520;28;20375;-69
2023/03/14 02:35:26;;;;;;;1.88;0.80;;;;;;;-144.47;95.09;52852.13;5031842;28;20029;-71
2023/03/14 02:37:55;;;;;;;1.77;0.70;;;;;;;-144.47;94.83;52879.94;5031350;28;20044;-69
2023/03/14 02:40:21;;;;;;;1.63;0.95;;;;;;;-144.47;95.02;52873.97;5031258;28;20079;-69
2023/03/14 02:42:46;;;;;;;1.35;0.82;;;;;;;-144.47;94.88;52834.25;5031296;28;20535;-70
2023/03/14 02:45:11;;;;;;;2.60;1.00;;;;;;;-144.47;94.90;52875.94;5031378;28;20123;-69
2023/03/14 02:47:42;;;;;;;2.67;0.82;;;;;;;-144.47;94.83;52866.03;5030831;28;20028;-71
2023/03/14 02:50:20;;;;;;;3.15;0.90;;;;;;;-144.47;94.86;52846.16;5031641;28;20046;-72
2023/03/14 02:52:46;;;;;;;3.58;0.85;;;;;;;-144.47;94.57;52895.81;5031190;28;20112;-71
2023/03/14 02:55:11;;;;;;;2.22;0.82;;;;;;;-144.47;94.46;52844.19;5030752;28;20167;-70
2023/03/14 02:57:37;;;;;;;3.28;1.10;;;;;;;-144.47;94.45;52844.19;5029967;28;20034;-71
2023/03/14 03:00:07;;;;;;;0.45;0.45;;;;;;;-144.47;94.49;52866.03;5031715;28;20032;-68
2023/03/14 03:02:32;;;;;;;1.27;0.80;;;;;;;-144.47;94.60;52852.13;5041551;28;20017;-68
2023/03/14 03:04:58;;;;;;;2.97;0.80;;;;;;;-144.47;94.37;52871.97;5014054;28;20030;-71
2023/03/14 03:07:24;;;;;;;5.00;0.80;;;;;;;-144.47;94.00;52873.97;5048537;28;20045;-70
2023/03/14 03:09:49;;;;;;;1.65;0.82;;;;;;;-144.47;93.89;52834.25;5041432;28;20239;-70
2023/03/14 03:12:15;;;;;;;2.20;0.68;;;;;;;-144.47;93.55;52858.06;5031200;28;20565;-71
2023/03/14 03:14:40;;;;;;;3.22;0.70;;;;;;;-144.47;93.54;52860.06;5032870;28;20037;-69
2023/03/14 03:17:06;;;;;;;1.10;0.80;;;;;;;-144.47;93.32;52877.94;5030289;28;20090;-71
2023/03/14 03:19:33;;;;;;;0.60;0.60;;;;;;;-144.47;91.66;52870.00;5030548;28;20025;-70
2023/03/14 03:21:58;;;;;;;5.07;0.88;;;;;;;-144.47;90.94;52852.13;5030438;28;20021;-71
2023/03/14 03:24:24;;;;;;;1.30;0.85;;;;;;;-144.47;89.15;52854.09;5030173;28;20091;-71
2023/03/14 03:26:50;;;;;;;1.73;0.80;;;;;;;-144.47;87.09;52854.09;5029596;28;20018;-70
2023/03/14 03:29:15;;;;;;;0.98;0.70;;;;;;;-144.47;85.26;52862.06;5030156;28;20021;-72
2023/03/14 03:31:41;;;;;;;3.60;1.17;;;;;;;-144.47;84.88;52852.13;5029957;28;20171;-70
2023/03/14 03:34:06;;;;;;;2.25;0.85;;;;;;;-144.47;84.88;52858.06;5030433;28;20064;-71
2023/03/14 03:36:35;;;;;;;1.08;0.60;;;;;;;-144.47;84.53;52868.00;5030115;28;20083;-70
2023/03/14 03:39:00;;;;;;;3.20;1.00;;;;;;;-144.47;84.66;52873.97;5031158;28;20462;-70
2023/03/14 03:41:25;;;;;;;1.40;0.70;;;;;;;-144.47;84.24;52870.00;5030659;28;20513;-71
2023/03/14 03:43:51;;;;;;;3.45;1.35;;;;;;;-144.47;84.58;52860.06;5031327;28;20029;-69
2023/03/14 03:46:16;;;;;;;3.30;0.75;;;;;;;-144.47;84.00;52846.16;5031596;28;20048;-72
2023/03/14 03:48:41;;;;;;;2.97;0.82;;;;;;;-144.47;83.91;52860.06;5032292;28;20415;-71
2023/03/14 03:51:14;;;;;;;1.90;0.73;;;;;;;-144.47;83.40;52854.09;5031500;28;20120;-72
2023/03/14 03:53:41;;;;;;;6.60;1.00;;;;;;;-144.47;82.98;52864.03;5002252;28;20506;-71
2023/03/14 03:56:07;;;;;;;1.25;0.60;;;;;;;-144.47;83.26;52836.22;5013069;28;20117;-70
2023/03/14 03:58:32;;;;;;;5.65;0.98;;;;;;;-144.47;83.46;52864.03;5030175;28;20095;-71
2023/03/14 04:00:58;;;;;;;9.75;1.88;;;;;;;-144.47;83.72;52836.22;5034424;28;20029;-72
2023/03/14 04:03:44;;;;;;;1.52;0.90;;;;;;;-144.47;84.38;52877.94;5036201;28;20427;-72
2023/03/14 04:06:12;;;;;;;3.53;0.90;;;;;;;-144.47;84.37;52852.13;5043494;28;20032;-71
2023/03/14 04:08:37;;;;;;;3.20;1.00;;;;;;;-144.47;84.31;52858.06;5050239;28;20570;-71
2023/03/14 04:11:04;;;;;;;2.03;0.70;;;;;;;-144.47;84.76;52864.03;5034789;28;20057;-71
2023/03/14 04:13:29;;;;;;;3.95;0.80;;;;;;;-144.47;85.18;52879.94;5015200;28;20041;-72
2023/03/14 04:15:55;;;;;;;1.85;0.80;;;;;;;-144.47;85.41;52854.09;5032843;28;20366;-69
2023/03/14 04:18:22;;;;;;;1.75;0.70;;;;;;;-144.47;85.04;52883.91;5032658;28;20039;-71
2023/03/14 04:20:52;;;;;;;4.25;1.00;;;;;;;-144.47;85.48;52866.03;5032910;28;20026;-71
2023/03/14 04:23:25;;;;;;;6.03;0.90;;;;;;;-144.47;85.85;52832.25;5032146;28;20040;-69
2023/03/14 04:25:51;;;;;;;1.92;1.00;;;;;;;-144.47;86.25;52844.19;5031950;28;20420;-71
2023/03/14 04:28:17;;;;;;;5.18;1.02;;;;;;;-144.47;87.12;52887.88;5033202;28;20071;-70
2023/03/14 04:30:42;;;;;;;3.80;0.95;;;;;;;-144.47;87.62;52862.06;5016805;28;20105;-70
2023/03/14 04:33:08;;;;;;;1.33;0.77;;;;;;;-144.47;87.84;52832.25;5035349;28;20112;-71
2023/03/14 04:35:33;;;;;;;3.67;1.10;;;;;;;-144.47;87.96;52875.94;5036240;28;20051;-71
2023/03/14 04:37:59;;;;;;;4.88;0.98;;;;;;;-144.47;88.61;52852.13;5016555;28;20021;-70
2023/03/14 04:40:27;;;;;;;4.05;0.90;;;;;;;-144.47;88.88;52879.94;5017493;28;20035;-68
2023/03/14 04:42:53;;;;;;;1.90;0.80;;;;;;;-144.47;88.84;52862.06;5034385;28;20021;-72
2023/03/14 04:45:18;;;;;;;1.65;0.82;;;;;;;-144.47;88.94;52868.00;5015693;28;20055;-69
2023/03/14 04:47:44;;;;;;;3.28;0.95;;;;;;;-144.47;89.16;52875.94;5034252;28;20022;-72
2023/03/14 04:50:10;;;;;;;3.88;0.90;;;;;;;-144.47;88.91;52858.06;5032878;28;20021;-70
2023/03/14 04:52:36;;;;;;;2.35;1.10;;;;;;;-144.47;87.62;52846.16;5030776;28;20025;-72
2023/03/14 04:55:01;;;;;;;1.73;0.90;;;;;;;-144.47;86.54;52860.06;5011788;28;20033;-72
2023/03/14 04:57:29;;;;;;;4.00;0.90;;;;;;;-144.47;86.17;52860.06;5029439;28;20529;-71
2023/03/14 04:59:54;;;;;;;5.03;1.67;;;;;;;-144.47;85.75;52858.06;5025854;28;20099;-70
2023/03/14 05:02:20;;;;;;;6.97;1.10;;;;;;;-144.47;85.13;52832.25;5023092;28;20120;-70
2023/03/14 05:04:45;;;;;;;2.83;1.08;;;;;;;-144.47;85.10;52852.13;5030136;28;20052;-69
2023/03/14 05:07:10;;;;;;;3.15;1.00;;;;;;;-144.47;85.23;52871.97;5047591;28;20017;-70
2023/03/14 05:09:36;;;;;;;4.38;1.20;;;;;;;-144.47;84.88;52854.09;5022293;28;20440;-69
2023/03/14 05:12:01;;;;;;;6.25;1.05;;;;;;;-144.47;85.18;52850.13;5029087;28;20080;-70
2023/03/14 05:14:27;;;;;;;2.20;0.90;;;;;;;-144.47;85.45;52864.03;5029359;28;20064;-69
2023/03/14 05:16:52;;;;;;;4.88;1.38;;;;;;;-144.47;85.27;52846.16;5028537;28;20440;-71
2023/03/14 05:19:18;;;;;;;3.85;1.20;;;;;;;-144.47;85.98;52868.00;5029294;28;20095;-71
2023/03/14 05:21:43;;;;;;;3.15;1.00;;;;;;;-144.47;86.13;52850.13;5029467;28;20496;-73
2023/03/14 05:24:09;;;;;;;7.25;1.42;;;;;;;-144.47;86.29;52860.06;5028953;28;20044;-73
2023/03/14 05:26:34;;;;;;;1.02;0.80;;;;;;;-144.47;86.34;52854.09;5030308;28;20029;-70
2023/03/14 05:28:59;;;;;;;4.25;1.10;;;;;;;-144.47;86.81;52856.09;5030826;28;20432;-71
2023/03/14 05:31:25;;;;;;;5.43;1.10;;;;;;;-144.47;87.09;52844.19;5030819;28;20055;-71
2023/03/14 05:33:50;;;;;;;4.85;1.17;;;;;;;-144.47;86.98;52868.00;5028821;28;20296;-72
2023/03/14 05:36:16;;;;;;;12.90;1.40;;;;;;;-144.47;87.41;52860.06;5028221;28;20017;-72
2023/03/14 05:38:41;;;;;;;4.93;1.38;;;;;;;-144.47;87.17;52870.00;5027876;28;20093;-71
2023/03/14 05:41:06;;;;;;;6.43;1.13;;;;;;;-144.47;86.82;52871.97;5028942;28;20034;-70
2023/03/14 05:43:32;;;;;;;6.03;1.42;;;;;;;-144.47;86.48;52889.84;5029163;28;20025;-72
2023/03/14 05:45:57;;;;;;;7.65;1.13;;;;;;;-144.47;86.75;52850.13;5011345;28;20022;-75
2023/03/14 05:48:23;;;;;;;4.60;1.08;;;;;;;-144.47;87.03;52881.91;5027613;28;20399;-68
2023/03/14 05:50:57;;;;;;;4.05;1.30;;;;;;;-144.47;87.19;52868.00;5028756;28;20032;-71
2023/03/14 05:53:22;;;;;;;7.57;1.60;;;;;;;-144.47;87.30;52842.19;5027922;28;20029;-70
2023/03/14 05:55:51;;;;;;;3.50;1.00;;;;;;;-144.47;87.58;52881.91;5028346;28;20024;-70
2023/03/14 05:58:17;;;;;;;;;;;;;;;-144.47;88.11;52891.84;5035032;28;20018;-69
2023/03/14 06:00:42;;;;;;;3.95;1.10;;;;;;;-144.47;87.78;52866.03;5030393;28;20224;-71
2023/03/14 06:03:07;;;;;;;8.63;2.15;;;;;;;-144.47;86.70;52881.91;5027858;28;20057;-69
2023/03/14 06:05:33;;;;;;;5.90;1.40;;;;;;;-144.47;86.33;52899.78;5035312;28;20036;-72
2023/03/14 06:07:58;;;;;;;4.78;1.00;;;;;;;-144.47;86.42;52877.94;5023769;28;20031;-72
2023/03/14 06:10:23;;;;;;;3.35;1.25;;;;;;;-144.47;85.43;52856.09;5027688;28;20284;-68
2023/03/14 06:12:49;;;;;;;8.35;1.40;;;;;;;-144.47;85.43;52871.97;5028033;28;20026;-70
2023/03/14 06:15:14;;;;;;;11.57;1.35;;;;;;;-144.47;84.08;52891.84;5028323;28;20028;-71
2023/03/14 06:17:39;;;;;;;8.57;1.45;;;;;;;-144.47;84.39;52868.00;5028804;28;20033;-71
2023/03/14 06:20:05;;;;;;;4.75;0.90;;;;;;;-144.47;84.60;52852.13;5027851;28;20594;-71
2023/03/14 06:22:31;;;;;;;8.45;1.55;;;;;;;-144.47;84.38;52864.03;5010198;28;20025;-70
2023/03/14 06:24:56;;;;;;;7.15;1.23;;;;;;;-144.47;84.72;52850.13;5028955;28;20036;-72
2023/03/14 06:27:21;;;;;;;2.40;0.98;;;;;;;-144.47;84.41;52883.91;5011215;28;20092;-70
2023/03/14 06:29:47;;;;;;;5.38;1.60;;;;;;;-144.47;84.81;52875.94;5032400;28;20391;-71
2023/03/14 06:32:12;;;;;;;5.57;1.50;;;;;;;-144.47;84.68;52852.13;5029960;28;20100;-69
2023/03/14 06:34:38;;;;;;;11.00;2.00;;;;;;;-144.47;85.30;52860.06;5043748;28;20092;-72
2023/03/14 06:37:04;;;;;;;9.00;1.45;;;;;;;-144.47;85.29;52887.88;5034389;28;20116;-70
2023/03/14 06:39:29;;;;;;;6.30;1.42;;;;;;;-144.47;85.47;52834.25;5031207;28;20403;-72
2023/03/14 06:41:54;;;;;;;8.18;2.08;;;;;;;-144.47;85.05;52844.19;5038179;28;20036;-74
2023/03/14 06:44:20;;;;;;;1.73;1.02;;;;;;;-144.47;85.32;52877.94;5048949;28;20021;-72
2023/03/14 06:46:45;;;;;;;4.72;1.15;;;;;;;-144.47;84.99;52840.19;5035232;28;20024;-73
2023/03/14 06:49:10;;;;;;;4.18;1.33;;;;;;;-144.47;85.40;52875.94;5031911;28;20037;-72
2023/03/14 06:51:36;;;;;;;4.82;1.08;;;;;;;-144.47;84.57;52830.28;5031435;28;20032;-70
2023/03/14 06:54:01;;;;;;;7.80;1.27;;;;;;;-144.47;84.62;52864.03;5031969;28;20445;-69
2023/03/14 06:56:26;;;;;;;5.82;1.20;;;;;;;-144.47;84.45;52877.94;5031247;28;20107;-68
2023/03/14 06:58:52;;;;;;;2.63;1.00;;;;;;;-144.47;84.30;52864.03;5032569;28;20057;-70
2023/03/14 07:01:25;;;;;;;4.20;1.20;;;;;;;-144.47;83.66;52852.13;5014211;28;20029;-72
2023/03/14 07:03:50;;;;;;;4.20;1.55;;;;;;;-144.47;82.79;52881.91;5032395;28;20112;-71
2023/03/14 07:06:16;;;;;;;3.85;1.00;;;;;;;-144.47;83.19;52864.03;5040345;28;20104;-73
2023/03/14 07:08:41;;;;;;;3.78;1.08;;;;;;;-144.47;82.54;52840.19;5046155;28;20441;-70
2023/03/14 07:11:07;;;;;;;2.47;0.90;;;;;;;-144.47;81.66;52846.16;5034356;28;20025;-70
2023/03/14 07:13:33;;;;;;;6.55;0.98;;;;;;;-144.47;81.20;52862.06;5031258;28;20029;-70
2023/03/14 07:15:58;;;;;;;6.93;1.45;;;;;;;-144.47;80.79;52866.03;5028302;28;20029;-72
2023/03/14 07:18:23;;;;;;;7.80;1.20;;;;;;;-144.47;80.22;52868.00;5020256;28;20044;-71
2023/03/14 07:20:49;;;;;;;5.65;1.65;;;;;;;-144.47;78.62;52848.16;5030670;28;20113;-72
2023/03/14 07:23:14;;;;;;;4.40;1.42;;;;;;;-144.47;78.74;52828.28;5031291;28;20094;-70
2023/03/14 07:25:40;;;;;;;5.90;1.27;;;;;;;-144.47;78.01;52866.03;5003225;28;20100;-72
2023/03/14 07:28:06;;;;;;;2.95;1.30;;;;;;;-144.47;78.12;52828.28;5024117;28;20078;-69
2023/03/14 07:30:31;;;;;;;4.20;1.15;;;;;;;-144.47;77.42;52858.06;5031697;28;20109;-69
2023/03/14 07:32:56;;;;;;;6.47;1.25;;;;;;;-144.47;77.59;52822.31;5038286;28;20033;-72
2023/03/14 07:35:22;;;;;;;10.07;1.42;;;;;;;-144.47;76.77;52854.09;5041305;28;20044;-72
2023/03/14 07:37:47;;;;;;;4.00;0.70;;;;;;;-144.47;76.50;52868.00;5012718;28;20025;-72
2023/03/14 07:40:14;;;;;;;3.47;1.00;;;;;;;-144.47;76.10;52836.22;5037087;28;20104;-71
2023/03/14 07:42:41;;;;;;;6.90;0.98;;;;;;;-144.47;76.48;52818.34;5035185;28;20196;-71
2023/03/14 07:45:09;;;;;;;3.35;1.20;;;;;;;-144.47;76.46;52822.31;5034121;28;20032;-71
2023/03/14 07:47:35;;;;;;;6.28;1.40;;;;;;;-144.47;76.42;52848.16;5029872;28;20022;-71
2023/03/14 07:50:00;;;;;;;4.32;1.23;;;;;;;-144.47;76.94;52828.28;5029830;28;20067;-71
2023/03/14 07:52:25;;;;;;;4.10;1.15;;;;;;;-144.47;77.52;52840.19;5031730;28;20489;-71
2023/03/14 07:54:51;;;;;;;3.28;0.82;;;;;;;-144.47;77.90;52846.16;5030009;28;20026;-70
2023/03/14 07:57:16;;;;;;;2.97;0.93;;;;;;;-144.47;77.52;52836.22;5030321;28;20518;-69
2023/03/14 07:59:42;;;;;;;3.88;0.90;;;;;;;-144.47;77.51;52842.19;5030304;28;20048;-69
2023/03/14 08:02:11;;;;;;;11.50;1.23;;;;;;;-144.47;77.02;52848.16;5040446;28;20040;-70
2023/03/14 08:04:38;;;;;;;5.40;1.42;;;;;;;-144.47;77.40;52834.25;5034222;28;20022;-74
2023/03/14 08:07:03;;;;;;;5.00;1.02;;;;;;;-144.47;77.57;52856.09;5039803;28;20041;-70
2023/03/14 08:09:28;;;;;;;4.03;0.90;;;;;;;-144.47;76.98;52838.22;5039710;28;20032;-71
2023/03/14 08:11:54;;;;;;;2.88;0.95;;;;;;;-144.47;77.03;52818.34;5030609;28;20040;-70
2023/03/14 08:14:19;;;;;;;2.30;1.17;;;;;;;-144.47;76.88;52842.19;5030421;28;20104;-70
2023/03/14 08:16:45;;;;;;;4.90;0.98;;;;;;;-144.47;76.59;52832.25;5029780;28;20026;-69
2023/03/14 08:19:10;;;;;;;3.30;0.80;;;;;;;-144.47;75.50;52840.19;5029859;28;20550;-70
2023/03/14 08:21:36;;;;;;;7.20;1.23;;;;;;;-144.47;74.67;52808.44;5030042;28;20025;-71
2023/03/14 08:24:01;;;;;;;5.47;0.80;;;;;;;-144.47;74.42;52834.25;5030993;28;20483;-69
2023/03/14 08:26:27;;;;;;;2.85;0.73;;;;;;;-144.47;74.29;52828.28;5029828;28;20107;-69
2023/03/14 08:28:52;;;;;;;1.80;0.77;;;;;;;-144.47;72.67;52854.09;5031505;28;20451;-70
2023/03/14 08:31:17;;;;;;;3.38;0.70;;;;;;;-144.47;71.98;52854.09;5031525;28;20359;-71
2023/03/14 08:33:43;;;;;;;3.58;1.15;;;;;;;-144.47;71.51;52822.31;5045004;28;20017;-69
2023/03/14 08:36:09;;;;;;;2.90;0.77;;;;;;;-144.47;71.12;52840.19;5047855;28;20229;-70
2023/03/14 08:38:34;;;;;;;9.20;1.83;;;;;;;-144.47;70.55;52818.34;5049348;28;20101;-70
2023/03/14 08:41:01;;;;;;;2.55;0.80;;;;;;;-144.47;70.69;52816.38;5033269;28;20053;-70
2023/03/14 08:43:28;;;;;;;4.15;0.75;;;;;;;-144.47;70.75;52824.31;5033864;28;20060;-70
2023/03/14 08:45:57;;;;;;;1.45;0.80;;;;;;;-144.47;70.33;52808.44;5031160;28;20030;-69
2023/03/14 08:48:22;;;;;;;3.10;0.70;;;;;;;-144.47;69.71;52810.41;5031899;28;20376;-71
2023/03/14 08:50:48;;;;;;;3.13;1.00;;;;;;;-144.47;69.30;52820.34;5034954;28;20070;-72
2023/03/14 08:53:13;;;;;;;8.70;1.27;;;;;;;-144.47;68.16;52828.28;5032185;28;20017;-70
2023/03/14 08:55:38;;;;;;;4.90;0.90;;;;;;;-144.47;68.40;52828.28;5030698;28;20048;-72
2023/03/14 08:58:04;;;;;;;2.10;0.80;;;;;;;-144.47;68.74;52814.38;5028678;28;20055;-69
2023/03/14 09:00:32;;;;;;;3.72;0.75;;;;;;;-144.47;68.39;52816.38;5029246;28;20083;-70
2023/03/14 09:02:58;;;;;;;2.58;0.90;;;;;;;-144.47;68.43;52806.44;5011941;28;20029;-70
2023/03/14 09:05:23;;;;;;;3.65;0.77;;;;;;;-144.47;68.25;52828.28;5032996;28;20080;-68
2023/03/14 09:07:48;;;;;;;2.40;0.60;;;;;;;-144.47;67.25;52800.47;5046553;28;20450;-70
2023/03/14 09:10:14;;;;;;;3.78;1.00;;;;;;;-144.47;68.17;52808.44;5038722;28;20039;-71
2023/03/14 09:12:39;;;;;;;2.72;1.00;;;;;;;-144.47;68.50;52814.38;5028726;28;20041;-69
2023/03/14 09:15:05;;;;;;;2.75;0.80;;;;;;;-144.47;68.33;52820.34;5028585;28;20021;-70
2023/03/14 09:17:31;;;;;;;5.47;0.80;;;;;;;-144.47;67.46;52794.53;5017133;28;20392;-68
2023/03/14 09:19:56;;;;;;;5.57;1.10;;;;;;;-144.47;67.85;52822.31;5011443;28;20048;-71
2023/03/14 09:22:22;;;;;;;2.97;0.70;;;;;;;-144.47;68.47;52812.41;5027799;28;20065;-69
2023/03/14 09:24:47;;;;;;;2.15;0.70;;;;;;;-144.47;67.65;52808.44;5011425;28;20593;-72
2023/03/14 09:27:13;;;;;;;2.38;0.70;;;;;;;-144.47;68.63;52814.38;5029780;28;20458;-72
2023/03/14 09:29:38;;;;;;;6.55;1.30;;;;;;;-144.47;68.15;52780.63;5043128;28;20061;-70
2023/03/14 09:32:04;;;;;;;3.60;0.70;;;;;;;-144.47;68.33;52806.44;5036103;28;20471;-72
2023/03/14 09:34:30;;;;;;;5.70;1.02;;;;;;;-144.47;68.38;52796.50;5029008;28;20025;-67
2023/03/14 09:36:55;;;;;;;3.15;0.95;;;;;;;-144.47;68.57;52814.38;5029293;28;20519;-69
2023/03/14 09:39:21;;;;;;;1.38;0.75;;;;;;;-144.47;68.08;52800.47;5029351;28;20025;-69
2023/03/14 09:41:49;;;;;;;3.72;0.77;;;;;;;-144.47;68.50;52808.44;5028556;28;20037;-70
2023/03/14 09:44:24;;;;;;;2.58;1.00;;;;;;;-144.47;68.21;52786.56;5028492;28;20073;-71
2023/03/14 09:46:54;;;;;;;4.65;0.95;;;;;;;-144.47;67.65;52814.38;5028021;28;20053;-72
2023/03/14 09:49:23;;;;;;;9.05;1.75;;;;;;;-144.47;67.70;52792.53;5034777;28;20107;-70
2023/03/14 09:51:53;;;;;;;3.10;0.63;;;;;;;-144.47;66.56;52790.56;5019196;28;20034;-69
2023/03/14 09:54:35;;;;;;;7.80;0.70;;;;;;;-144.47;64.87;52818.34;5028483;28;20360;-70
2023/03/14 09:57:02;;;;;;;0.88;0.60;;;;;;;-144.47;65.39;52796.50;5027406;28;20021;-69
2023/03/14 09:59:29;;;;;;;1.33;0.70;;;;;;;-144.47;65.04;52814.38;5027774;28;20045;-71
2023/03/14 10:01:59;;;;;;;7.28;1.27;;;;;;;-144.47;65.21;52824.31;5028603;28;20109;-68
2023/03/14 10:04:27;;;;;;;2.15;0.65;;;;;;;-144.47;64.66;52834.25;5026653;28;20036;-68
2023/03/14 10:06:52;;;;;;;9.02;1.02;;;;;;;-144.47;65.13;52814.38;5041812;28;20060;-70
2023/03/14 10:09:25;;;;;;;0.85;0.60;;;;;;;-144.47;64.27;52828.28;5042050;28;20108;-68
2023/03/14 10:11:54;;;;;;;4.55;0.93;;;;;;;-144.47;64.72;52800.47;5033814;28;20136;-68
2023/03/14 10:14:31;;;;;;;2.33;0.77;;;;;;;-144.47;64.53;52816.38;5032252;28;20057;-69
2023/03/14 10:17:11;;;;;;;2.25;0.77;;;;;;;-144.47;64.89;52812.41;5032404;28;20530;-68
2023/03/14 10:19:50;;;;;;;4.75;0.80;;;;;;;-144.47;64.82;52800.47;5032826;28;20040;-68
2023/03/14 10:22:17;;;;;;;3.10;0.90;;;;;;;-144.47;64.89;52812.41;5031789;28;20025;-71
2023/03/14 10:24:49;;;;;;;3.08;0.95;;;;;;;-144.47;64.98;52812.41;5031542;28;20096;-70
2023/03/14 10:27:20;;;;;;;1.35;0.63;;;;;;;-144.47;64.60;52784.59;5012756;28;20160;-72
2023/03/14 10:30:01;;;;;;;2.08;0.63;;;;;;;-144.47;64.37;52818.34;5039452;28;20100;-68
2023/03/14 10:32:46;;;;;;;1.38;0.60;;;;;;;-144.47;64.50;52792.53;5035241;28;20022;-68
2023/03/14 10:35:15;;;;;;;1.30;0.70;;;;;;;-144.47;63.10;52796.50;5031757;28;20136;-70
2023/03/14 10:37:52;;;;;;;2.60;0.80;;;;;;;-144.47;63.03;52800.47;5030382;28;20142;-70
2023/03/14 10:40:20;;;;;;;1.02;0.55;;;;;;;-144.47;62.96;52830.28;5009157;28;20029;-72
2023/03/14 10:42:47;;;;;;;2.00;0.60;;;;;;;-144.47;63.38;52786.56;5030271;28;20341;-70
2023/03/14 10:45:25;;;;;;;1.95;0.68;;;;;;;-144.47;62.85;52796.50;5031384;28;20112;-68
2023/03/14 10:47:53;;;;;;;1.85;0.65;;;;;;;-144.47;63.67;52802.47;5031167;28;20140;-71
2023/03/14 10:50:29;;;;;;;2.10;0.63;;;;;;;-144.47;63.63;52780.63;5030751;28;20028;-70
2023/03/14 10:52:57;;;;;;;5.18;1.25;;;;;;;-144.47;63.74;52822.31;5028221;28;20140;-68
2023/03/14 10:55:26;;;;;;;2.88;0.80;;;;;;;-144.47;63.86;52808.44;5030023;28;20036;-69
2023/03/14 10:57:52;;;;;;;2.53;0.70;;;;;;;-144.47;63.73;52816.38;5028786;28;20530;-69
2023/03/14 11:00:22;;;;;;;0.60;0.50;;;;;;;-144.47;63.73;52818.34;5029434;28;20499;-71
2023/03/14 11:02:54;;;;;;;0.80;0.65;;;;;;;-144.47;63.43;52772.69;5030334;28;20025;-71
2023/03/14 11:05:31;;;;;;;2.15;0.60;;;;;;;-144.47;63.95;52812.41;5033070;28;20498;-71
2023/03/14 11:08:02;;;;;;;1.23;0.50;;;;;;;-144.47;64.30;52790.56;5039414;28;20059;-70
2023/03/14 11:10:53;;;;;;;0.68;0.52;;;;;;;-144.47;64.02;52816.38;5030348;28;20070;-69
2023/03/14 11:13:43;;;;;;;3.20;0.70;;;;;;;-144.47;64.79;52802.47;5029905;28;20026;-70
2023/03/14 11:16:49;;;;;;;1.98;0.60;;;;;;;-144.47;64.50;52798.50;5030224;28;20021;-69